Time;durP1;ratioP1;P1;durP2;ratioP2;P2;SDS_P1;SDS_P2;PMS_P1;PMS_P2;Temp;Humidity;BMP_temperature;BMP_pressure;BME280_temperature;BME280_humidity;BME280_pressure;Samples;Min_cycle;Max_cycle;Signal;HPM_P1;HPM_P2
2022/08/11 00:02:30;;;;;;;2.63;2.42;;;20.60;78.10;;;;;;5054296;28;20248;-90
2022/08/11 00:05:05;;;;;;;2.17;2.08;;;20.60;78.50;;;;;;5054346;28;20210;-89
2022/08/11 00:07:41;;;;;;;2.28;2.10;;;20.60;78.70;;;;;;5054322;28;20259;-89
2022/08/11 00:10:12;;;;;;;2.78;2.30;;;20.60;79.20;;;;;;5053728;28;20284;-89
2022/08/11 00:12:42;;;;;;;2.38;2.17;;;20.50;80.50;;;;;;5053540;28;20269;-90
2022/08/11 00:15:11;;;;;;;2.30;2.20;;;20.50;80.40;;;;;;5054668;28;20297;-89
2022/08/11 00:17:40;;;;;;;2.78;2.15;;;20.50;80.40;;;;;;5055249;28;20236;-89
2022/08/11 00:20:12;;;;;;;2.78;2.58;;;20.50;81.00;;;;;;5076485;28;20233;-90
2022/08/11 00:22:48;;;;;;;2.28;2.13;;;20.50;80.80;;;;;;5075207;28;20201;-90
2022/08/11 00:25:19;;;;;;;4.22;2.63;;;20.50;80.20;;;;;;5054905;28;20265;-89
2022/08/11 00:27:48;;;;;;;2.47;2.22;;;20.40;80.80;;;;;;5054180;28;20292;-89
2022/08/11 00:30:17;;;;;;;2.83;2.63;;;20.40;80.70;;;;;;5053658;28;20313;-90
2022/08/11 00:32:53;;;;;;;2.08;1.98;;;20.40;80.70;;;;;;5053756;28;20285;-89
2022/08/11 00:35:26;;;;;;;2.35;2.15;;;20.30;80.70;;;;;;5054011;28;20347;-89
2022/08/11 00:38:17;;;;;;;1.98;1.80;;;20.30;81.20;;;;;;5053818;28;20212;-89
2022/08/11 00:40:55;;;;;;;2.10;1.98;;;20.30;80.40;;;;;;5053579;28;20237;-89
2022/08/11 00:43:38;;;;;;;2.58;2.38;;;20.20;80.90;;;;;;5053365;28;20289;-90
2022/08/11 00:46:16;;;;;;;3.60;2.33;;;20.20;80.40;;;;;;5053781;28;20265;-89
2022/08/11 00:48:59;;;;;;;2.85;2.65;;;20.20;81.90;;;;;;5052932;28;20241;-88
2022/08/11 00:51:44;;;;;;;2.47;2.22;;;20.10;80.90;;;;;;5053457;28;20283;-89
2022/08/11 00:55:02;;;;;;;2.33;2.13;;;20.10;81.50;;;;;;5053709;28;20232;-89
2022/08/11 00:58:04;;;;;;;2.00;1.88;;;20.10;81.80;;;;;;5053147;28;20225;-89
2022/08/11 01:00:41;;;;;;;2.58;2.38;;;20.10;80.80;;;;;;5042367;28;20324;-89
2022/08/11 01:03:20;;;;;;;2.55;2.35;;;20.00;81.70;;;;;;5053250;28;20212;-90
2022/08/11 01:06:06;;;;;;;2.55;2.35;;;20.00;81.10;;;;;;5053062;28;20284;-90
2022/08/11 01:09:16;;;;;;;2.38;2.17;;;20.00;81.80;;;;;;5052625;28;20292;-89
2022/08/11 01:12:29;;;;;;;2.10;2.00;;;20.00;83.00;;;;;;5038319;28;20313;-89
2022/08/11 01:15:54;;;;;;;2.65;2.45;;;19.90;84.00;;;;;;5042889;28;20201;-89
2022/08/11 01:19:09;;;;;;;2.90;2.70;;;19.90;84.50;;;;;;5011232;28;20207;-89
2022/08/11 01:22:11;;;;;;;2.47;2.28;;;19.80;85.60;;;;;;5001679;28;20237;-90
2022/08/11 01:25:03;;;;;;;2.85;2.65;;;19.70;83.10;;;;;;5053354;28;20201;-89
2022/08/11 01:28:11;;;;;;;2.30;2.10;;;19.60;86.40;;;;;;5052961;28;20237;-90
2022/08/11 01:31:11;;;;;;;2.40;2.20;;;19.60;85.20;;;;;;5052978;28;20308;-90
2022/08/11 01:34:31;;;;;;;2.22;2.03;;;19.50;84.60;;;;;;5051253;28;20217;-89
2022/08/11 01:37:16;;;;;;;2.33;2.08;;;19.50;84.00;;;;;;5044467;28;20293;-89
2022/08/11 01:40:30;;;;;;;2.90;2.28;;;19.40;85.60;;;;;;5052354;28;20205;-90
2022/08/11 01:46:35;;;;;;;2.80;2.60;;;19.30;86.20;;;;;;5052935;28;20224;-89
2022/08/11 01:49:14;;;;;;;3.15;2.28;;;19.30;86.50;;;;;;5051999;28;20202;-90
2022/08/11 01:52:17;;;;;;;2.65;1.88;;;19.20;87.20;;;;;;5052457;28;20229;-89
2022/08/11 01:55:03;;;;;;;2.88;2.63;;;19.20;88.30;;;;;;5052471;28;20257;-90
2022/08/11 01:57:37;;;;;;;2.38;2.17;;;19.20;87.70;;;;;;5052645;28;20206;-90
2022/08/11 02:00:10;;;;;;;2.53;2.33;;;19.10;87.10;;;;;;5052415;28;20209;-90
2022/08/11 02:02:52;;;;;;;2.72;2.53;;;19.00;86.40;;;;;;5052546;28;20225;-89
2022/08/11 02:05:29;;;;;;;1.88;1.77;;;19.00;87.60;;;;;;5052284;28;20233;-89
2022/08/11 02:08:08;;;;;;;2.63;2.42;;;18.90;88.00;;;;;;5052864;28;20292;-89
2022/08/11 02:13:42;;;;;;;4.05;2.88;;;18.80;89.90;;;;;;5052170;28;20341;-89
2022/08/11 02:16:21;;;;;;;3.15;2.65;;;18.80;90.40;;;;;;5052383;28;20229;-90
2022/08/11 02:24:42;;;;;;;2.60;2.40;;;18.80;92.20;;;;;;5052454;28;20245;-90
2022/08/11 02:27:18;;;;;;;2.85;2.65;;;18.70;92.00;;;;;;5052278;28;20293;-89
2022/08/11 02:30:03;;;;;;;3.03;2.67;;;18.70;91.80;;;;;;5052034;28;20209;-89
2022/08/11 02:35:28;;;;;;;2.35;2.05;;;18.60;91.00;;;;;;5054249;28;20210;-90
2022/08/11 02:38:11;;;;;;;2.80;2.55;;;18.50;90.90;;;;;;5056212;28;20212;-90
2022/08/11 02:40:49;;;;;;;2.30;2.17;;;18.50;91.70;;;;;;5056109;28;20316;-89
2022/08/11 02:43:26;;;;;;;6.45;2.58;;;18.50;91.70;;;;;;5055874;28;20306;-89
2022/08/11 02:46:06;;;;;;;3.15;2.85;;;18.50;92.60;;;;;;5055931;28;20205;-90
2022/08/11 02:51:57;;;;;;;2.80;2.20;;;18.50;93.30;;;;;;5055790;28;20229;-90
2022/08/11 02:54:32;;;;;;;3.22;2.92;;;18.40;93.80;;;;;;5055391;28;20241;-90
2022/08/11 02:57:06;;;;;;;2.97;2.65;;;18.40;94.20;;;;;;5055536;28;20284;-90
2022/08/11 02:59:53;;;;;;;2.80;2.58;;;18.40;95.10;;;;;;5055430;28;20292;-90
2022/08/11 03:02:31;;;;;;;2.40;2.20;;;18.40;94.50;;;;;;5055415;28;20214;-90
2022/08/11 03:05:12;;;;;;;2.42;2.22;;;18.40;95.10;;;;;;5055575;28;20206;-90
2022/08/11 03:07:56;;;;;;;3.97;3.00;;;18.30;95.60;;;;;;5055114;28;20300;-89
2022/08/11 03:10:32;;;;;;;3.10;2.70;;;18.30;95.60;;;;;;5055024;28;20308;-89
2022/08/11 03:19:14;;;;;;;2.53;2.33;;;18.20;95.20;;;;;;5054809;28;20257;-90
2022/08/11 03:21:48;;;;;;;2.33;2.20;;;18.20;97.10;;;;;;5055184;28;20308;-89
2022/08/11 03:24:45;;;;;;;2.55;2.30;;;18.20;97.20;;;;;;5055126;28;20206;-89
2022/08/11 03:27:27;;;;;;;3.03;2.72;;;18.20;96.60;;;;;;5054806;28;20209;-90
2022/08/11 03:30:06;;;;;;;2.53;2.33;;;18.10;96.90;;;;;;5054393;28;20289;-90
2022/08/11 03:32:42;;;;;;;2.65;2.45;;;18.10;97.40;;;;;;5054885;28;20220;-90
2022/08/11 03:35:10;;;;;;;2.72;2.53;;;18.10;96.50;;;;;;5054723;28;20229;-90
2022/08/11 03:37:56;;;;;;;3.50;3.08;;;18.10;97.00;;;;;;5054822;28;20205;-89
2022/08/11 03:44:06;;;;;;;4.47;2.95;;;18.00;97.50;;;;;;5055803;28;20208;-89
2022/08/11 03:46:55;;;;;;;2.00;1.90;;;18.00;98.60;;;;;;5055712;28;20212;-90
2022/08/11 03:49:34;;;;;;;2.90;2.53;;;18.00;98.80;;;;;;5061538;28;20182;-90
2022/08/11 03:52:13;;;;;;;2.20;2.03;;;18.00;99.10;;;;;;5077845;28;20222;-90
2022/08/11 03:54:50;;;;;;;2.75;2.55;;;18.00;98.30;;;;;;5062280;28;20304;-90
2022/08/11 03:57:58;;;;;;;3.47;3.17;;;18.00;98.40;;;;;;5055045;28;20292;-90
2022/08/11 04:00:47;;;;;;;2.25;2.13;;;17.90;98.40;;;;;;5042796;28;20317;-90
2022/08/11 04:03:58;;;;;;;2.63;2.42;;;18.00;98.80;;;;;;5054946;28;20236;-91
2022/08/11 04:07:05;;;;;;;2.60;2.40;;;17.90;98.00;;;;;;5050631;28;20286;-91
2022/08/11 04:10:04;;;;;;;2.85;2.58;;;17.90;98.30;;;;;;5054340;28;20236;-90
2022/08/11 04:13:02;;;;;;;2.85;2.55;;;17.90;98.00;;;;;;5054409;28;20226;-90
2022/08/11 04:16:01;;;;;;;3.20;2.90;;;17.90;99.70;;;;;;5054029;28;20312;-90
2022/08/11 04:19:18;;;;;;;2.88;2.67;;;17.90;99.50;;;;;;5054141;28;20221;-90
2022/08/11 04:22:08;;;;;;;3.05;2.50;;;17.90;99.90;;;;;;5038673;28;20310;-90
2022/08/11 04:25:05;;;;;;;2.38;2.17;;;17.90;99.90;;;;;;5053838;28;20280;-90
2022/08/11 04:28:06;;;;;;;2.55;2.38;;;17.90;99.90;;;;;;5042834;28;20285;-90
2022/08/11 04:30:58;;;;;;;2.45;2.25;;;17.90;99.90;;;;;;5053320;28;20244;-90
2022/08/11 04:34:05;;;;;;;3.22;2.15;;;17.90;99.90;;;;;;5053620;28;20280;-90
2022/08/11 04:37:34;;;;;;;2.72;2.53;;;17.90;99.90;;;;;;5053906;28;20229;-90
2022/08/11 04:40:34;;;;;;;2.90;2.58;;;17.90;99.90;;;;;;5053506;28;20292;-90
2022/08/11 04:43:45;;;;;;;6.57;2.63;;;17.90;99.90;;;;;;5053432;28;20285;-90
2022/08/11 04:47:05;;;;;;;2.30;2.10;;;18.00;99.90;;;;;;5053107;28;20204;-90
2022/08/11 05:02:35;;;;;;;2.90;2.60;;;18.10;99.90;;;;;;5044157;28;20233;-91
2022/08/11 05:05:30;;;;;;;2.72;2.30;;;18.20;99.90;;;;;;5031154;28;20284;-90
2022/08/11 05:08:38;;;;;;;12.55;3.40;;;18.20;99.90;;;;;;5053930;28;20201;-90
2022/08/11 05:11:43;;;;;;;3.33;3.05;;;18.30;99.90;;;;;;5049733;28;20236;-90
2022/08/11 05:34:55;;;;;;;2.50;2.30;;;18.80;98.70;;;;;;5052699;28;20313;-90
2022/08/11 05:37:38;;;;;;;2.42;2.22;;;18.90;98.90;;;;;;5052791;28;20212;-90
2022/08/11 05:57:21;;;;;;;3.00;2.70;;;19.30;98.10;;;;;;5053000;28;20252;-89
2022/08/11 06:00:11;;;;;;;2.42;2.22;;;19.40;97.60;;;;;;5053111;28;20206;-90
2022/08/11 06:02:46;;;;;;;3.42;2.55;;;19.40;98.00;;;;;;5053020;28;20293;-90
2022/08/11 06:05:16;;;;;;;2.80;2.03;;;19.50;97.40;;;;;;5053103;28;20304;-90
2022/08/11 06:07:48;;;;;;;3.30;3.00;;;19.60;97.50;;;;;;5053245;28;20285;-90
2022/08/11 06:10:29;;;;;;;2.25;2.15;;;19.60;97.00;;;;;;5056384;28;20236;-90
2022/08/11 06:13:00;;;;;;;2.53;2.17;;;19.60;96.80;;;;;;5056280;28;20292;-90
2022/08/11 06:15:30;;;;;;;4.13;2.53;;;19.70;97.20;;;;;;5056285;28;20242;-89
2022/08/11 06:18:02;;;;;;;2.17;1.98;;;19.70;96.80;;;;;;5056302;28;20301;-90
2022/08/11 06:20:36;;;;;;;2.72;2.20;;;19.80;96.90;;;;;;5055770;28;20281;-90
2022/08/11 06:23:07;;;;;;;1.85;1.63;;;19.90;95.90;;;;;;5056410;28;20217;-90
2022/08/11 06:25:37;;;;;;;2.42;2.22;;;20.00;96.30;;;;;;5056114;28;20213;-90
2022/08/11 06:28:08;;;;;;;2.20;2.08;;;20.10;96.10;;;;;;5055596;28;20238;-90
2022/08/11 06:30:40;;;;;;;4.60;3.20;;;20.10;97.00;;;;;;5055672;28;20237;-89
2022/08/11 06:33:13;;;;;;;4.10;3.70;;;20.20;96.10;;;;;;5056111;28;20229;-89
2022/08/11 06:35:58;;;;;;;9.25;4.00;;;20.30;95.90;;;;;;5055966;28;20221;-89
2022/08/11 06:38:49;;;;;;;3.00;2.53;;;20.40;95.40;;;;;;5056062;28;20201;-89
2022/08/11 06:41:30;;;;;;;3.35;3.05;;;20.50;95.20;;;;;;5055731;28;20229;-89
2022/08/11 06:44:09;;;;;;;3.22;2.92;;;20.60;96.00;;;;;;5056035;28;20289;-91
2022/08/11 06:46:40;;;;;;;2.75;2.55;;;20.70;95.20;;;;;;5055704;28;20273;-90
2022/08/11 06:51:55;;;;;;;3.13;2.42;;;20.90;95.90;;;;;;5055808;28;20249;-90
2022/08/11 06:54:30;;;;;;;2.88;2.38;;;20.90;94.30;;;;;;5055482;28;20239;-90
2022/08/11 07:00:27;;;;;;;2.90;2.03;;;21.00;94.90;;;;;;5055437;28;20209;-90
2022/08/11 07:03:00;;;;;;;3.10;1.88;;;21.20;94.70;;;;;;5055606;28;20224;-90
2022/08/11 07:05:42;;;;;;;2.00;1.90;;;21.30;94.40;;;;;;5055705;28;20233;-90
2022/08/11 07:30:22;;;;;;;5.35;2.80;;;22.80;91.60;;;;;;5054401;28;20246;-89
2022/08/11 07:32:52;;;;;;;3.22;2.92;;;23.00;91.40;;;;;;5055231;28;20236;-90
2022/08/11 07:35:24;;;;;;;12.40;3.20;;;23.20;90.70;;;;;;5054483;28;20221;-90
2022/08/11 07:37:59;;;;;;;2.85;2.60;;;23.30;90.80;;;;;;5054979;28;20265;-89
2022/08/11 07:40:30;;;;;;;2.20;2.05;;;23.60;90.70;;;;;;5054639;28;20229;-89
2022/08/11 07:43:00;;;;;;;3.28;2.90;;;23.70;90.90;;;;;;5054869;28;20206;-89
2022/08/11 07:53:52;;;;;;;3.33;1.90;;;25.10;86.20;;;;;;5054750;28;20288;-90
2022/08/11 07:56:35;;;;;;;2.00;1.90;;;25.70;84.00;;;;;;5054361;28;20240;-89
2022/08/11 08:19:19;;;;;;;3.15;2.35;;;30.40;71.70;;;;;;5053901;28;20217;-90
2022/08/11 08:21:48;;;;;;;5.85;2.47;;;30.80;69.60;;;;;;5054261;28;20264;-90
2022/08/11 08:24:19;;;;;;;2.25;2.05;;;31.10;69.40;;;;;;5053793;28;20205;-90
2022/08/11 08:26:58;;;;;;;2.40;2.20;;;31.20;67.30;;;;;;5053687;28;20288;-90
2022/08/11 08:32:16;;;;;;;2.50;2.30;;;31.90;66.30;;;;;;5052752;28;20312;-90
2022/08/11 08:34:46;;;;;;;2.03;1.85;;;32.50;64.90;;;;;;5053528;28;20209;-91
2022/08/11 08:37:18;;;;;;;2.75;2.55;;;32.70;65.20;;;;;;5053829;28;20284;-90
2022/08/11 08:40:08;;;;;;;2.00;1.90;;;32.90;63.50;;;;;;5053167;28;20196;-91
2022/08/11 08:42:50;;;;;;;2.85;2.63;;;33.30;66.50;;;;;;5053800;28;20271;-90
2022/08/11 08:45:19;;;;;;;3.08;2.33;;;33.50;61.40;;;;;;5053689;28;20228;-90
2022/08/11 08:47:54;;;;;;;4.40;2.28;;;33.70;59.00;;;;;;5053368;28;20284;-90
2022/08/11 08:51:32;;;;;;;3.08;2.33;;;33.60;59.80;;;;;;5053067;28;20278;-90
2022/08/11 08:53:17;;;;;;;2.60;2.40;;;33.80;61.50;;;;;;5053830;28;20224;-90
2022/08/11 08:55:46;;;;;;;2.33;2.13;;;34.00;64.20;;;;;;5053317;28;20292;-90
2022/08/11 08:58:16;;;;;;;2.22;2.05;;;34.30;59.40;;;;;;5053217;28;20251;-90
2022/08/11 09:00:46;;;;;;;2.78;2.58;;;34.30;58.40;;;;;;5052983;28;20217;-90
2022/08/11 09:03:14;;;;;;;2.20;2.00;;;34.60;57.90;;;;;;5053357;28;20256;-90
2022/08/11 09:06:03;;;;;;;2.63;2.45;;;35.00;58.20;;;;;;5053406;28;20208;-91
2022/08/11 09:08:32;;;;;;;3.53;2.33;;;35.00;55.20;;;;;;5053213;28;20200;-90
2022/08/11 09:13:52;;;;;;;2.35;2.15;;;34.80;56.50;;;;;;5053020;28;20292;-90
2022/08/11 09:16:34;;;;;;;1.75;1.65;;;35.20;58.50;;;;;;5052859;28;20225;-90
2022/08/11 09:19:03;;;;;;;2.15;1.95;;;35.70;52.70;;;;;;5052653;28;20209;-90
2022/08/11 09:21:32;;;;;;;2.17;2.05;;;35.70;55.10;;;;;;5052948;28;20229;-90
2022/08/11 09:27:08;;;;;;;1.75;1.65;;;35.80;53.80;;;;;;5053266;28;20204;-90
2022/08/11 09:29:38;;;;;;;1.80;1.70;;;36.20;51.30;;;;;;5052607;28;20215;-90
2022/08/11 09:32:07;;;;;;;3.13;2.38;;;36.50;50.80;;;;;;5052528;28;20282;-90
2022/08/11 09:34:37;;;;;;;4.15;2.45;;;36.20;51.20;;;;;;5052536;28;20205;-90
2022/08/11 09:40:30;;;;;;;2.75;2.22;;;36.00;54.60;;;;;;5052249;28;20209;-90
2022/08/11 09:45:51;;;;;;;2.25;1.67;;;36.00;50.20;;;;;;5052665;28;20288;-90
2022/08/11 09:48:21;;;;;;;3.25;2.30;;;35.70;48.90;;;;;;5052448;28;20268;-90
2022/08/11 09:50:52;;;;;;;2.05;1.67;;;36.20;50.70;;;;;;5052912;28;20312;-90
2022/08/11 09:53:22;;;;;;;1.75;1.63;;;35.80;51.20;;;;;;5052747;28;20213;-90
2022/08/11 09:58:49;;;;;;;4.75;2.13;;;36.50;51.50;;;;;;5051980;28;20277;-90
2022/08/11 10:01:29;;;;;;;2.42;2.20;;;36.80;48.60;;;;;;5052356;28;20217;-90
2022/08/11 10:04:01;;;;;;;2.70;2.22;;;36.40;47.70;;;;;;5052740;28;20208;-89
2022/08/11 10:09:23;;;;;;;2.05;1.92;;;35.20;49.50;;;;;;5052295;28;20216;-90
2022/08/11 10:11:56;;;;;;;2.13;1.92;;;35.40;48.70;;;;;;5052222;28;20252;-90
2022/08/11 10:17:16;;;;;;;2.35;2.15;;;35.80;49.80;;;;;;5052322;28;20225;-90
2022/08/11 10:19:48;;;;;;;3.47;3.17;;;35.50;46.50;;;;;;5052322;28;20220;-90
2022/08/11 10:28:09;;;;;;;1.52;1.42;;;36.10;47.50;;;;;;5052690;28;20288;-90
2022/08/11 10:34:02;;;;;;;2.30;2.10;;;36.60;46.60;;;;;;5052295;28;20201;-90
2022/08/11 10:36:33;;;;;;;6.40;1.88;;;37.00;47.00;;;;;;5052163;28;20244;-90
2022/08/11 10:39:04;;;;;;;2.20;2.00;;;37.20;46.60;;;;;;5052455;28;20255;-91
2022/08/11 10:44:39;;;;;;;2.03;1.50;;;37.00;44.70;;;;;;5055446;28;20205;-91
2022/08/11 11:01:05;;;;;;;1.80;1.70;;;36.50;45.60;;;;;;5055806;28;20300;-91
2022/08/11 11:03:35;;;;;;;2.05;1.60;;;36.40;44.40;;;;;;5055594;28;20205;-90
2022/08/11 11:06:10;;;;;;;3.90;1.90;;;36.00;45.40;;;;;;5055441;28;20288;-91
2022/08/11 11:09:01;;;;;;;1.95;1.83;;;35.90;44.80;;;;;;5055211;28;20206;-91
2022/08/11 11:20:12;;;;;;;1.63;1.52;;;35.10;42.90;;;;;;5055316;28;20288;-91
2022/08/11 11:23:07;;;;;;;1.98;1.88;;;34.30;45.50;;;;;;5054866;28;20212;-91
2022/08/11 11:26:05;;;;;;;2.05;1.90;;;33.70;46.50;;;;;;5054917;28;20209;-91
2022/08/11 11:29:00;;;;;;;2.00;1.90;;;33.40;46.20;;;;;;5054762;28;20276;-91
2022/08/11 11:31:43;;;;;;;1.85;1.75;;;33.70;48.30;;;;;;5054678;28;20267;-92
2022/08/11 11:34:23;;;;;;;2.90;2.40;;;34.30;45.60;;;;;;5054686;28;20248;-91
2022/08/11 11:36:55;;;;;;;2.28;2.08;;;35.10;43.50;;;;;;5054855;28;20308;-92
2022/08/11 11:39:27;;;;;;;3.17;2.97;;;35.30;42.90;;;;;;5054768;28;20264;-91
2022/08/11 11:42:00;;;;;;;1.80;1.70;;;35.10;42.90;;;;;;5054796;28;20241;-91
2022/08/11 11:44:29;;;;;;;1.80;1.70;;;35.30;44.40;;;;;;5054576;28;20251;-90
2022/08/11 11:47:00;;;;;;;3.08;2.03;;;35.30;43.40;;;;;;5053959;28;20228;-92
2022/08/11 11:49:31;;;;;;;1.60;1.50;;;35.70;42.70;;;;;;5054067;28;20301;-91
2022/08/11 11:52:00;;;;;;;1.75;1.65;;;35.90;40.30;;;;;;5053922;28;20225;-91
2022/08/11 11:54:32;;;;;;;2.13;1.38;;;35.50;40.10;;;;;;5054495;28;20225;-91
2022/08/11 12:01:14;;;;;;;1.73;1.63;;;35.00;40.30;;;;;;5054489;28;20311;-90
2022/08/11 12:02:42;;;;;;;1.88;1.77;;;33.60;41.60;;;;;;5054192;28;20214;-90
2022/08/11 12:05:11;;;;;;;1.42;1.40;;;32.50;42.70;;;;;;5054235;28;20289;-91
2022/08/11 12:10:44;;;;;;;1.73;1.63;;;31.40;44.40;;;;;;5054061;28;20332;-90
2022/08/11 12:16:02;;;;;;;6.63;1.98;;;30.90;47.50;;;;;;5054112;28;20276;-91
2022/08/11 12:18:54;;;;;;;1.67;1.58;;;31.10;46.60;;;;;;5053374;28;20221;-91
2022/08/11 12:21:24;;;;;;;2.38;2.15;;;31.30;47.40;;;;;;5053491;28;20234;-90
2022/08/11 12:29:46;;;;;;;2.05;1.85;;;31.10;48.10;;;;;;5053710;28;20308;-90
2022/08/11 12:32:24;;;;;;;2.42;2.22;;;31.30;47.40;;;;;;5053417;28;20255;-90
2022/08/11 12:34:52;;;;;;;1.60;1.50;;;31.30;45.20;;;;;;5053656;28;20210;-90
2022/08/11 12:37:28;;;;;;;2.65;2.25;;;31.30;45.80;;;;;;5053393;28;20229;-90
2022/08/11 12:46:08;;;;;;;1.40;1.30;;;30.50;44.10;;;;;;5053443;28;20283;-90
2022/08/11 12:54:56;;;;;;;1.35;1.25;;;29.90;45.80;;;;;;5052952;28;20209;-90
2022/08/11 13:05:56;;;;;;;3.72;1.90;;;31.30;42.60;;;;;;5052949;28;20221;-90
2022/08/11 13:08:28;;;;;;;1.13;1.13;;;31.60;42.80;;;;;;5052653;28;20265;-90
2022/08/11 13:13:47;;;;;;;2.70;2.17;;;32.30;42.60;;;;;;5052811;28;20256;-90
2022/08/11 13:16:29;;;;;;;3.70;1.90;;;32.90;44.60;;;;;;5052905;28;20213;-91
2022/08/11 13:18:59;;;;;;;2.00;1.90;;;33.30;44.10;;;;;;5052056;28;20257;-91
2022/08/11 13:21:29;;;;;;;1.77;1.67;;;33.60;42.60;;;;;;5052504;28;20217;-91
2022/08/11 13:23:59;;;;;;;1.70;1.60;;;33.80;43.90;;;;;;5052008;28;20210;-90
2022/08/11 13:26:33;;;;;;;4.22;2.40;;;33.50;42.50;;;;;;5052705;28;20201;-90
2022/08/11 13:29:19;;;;;;;1.92;1.58;;;33.40;41.50;;;;;;5052965;28;20205;-91
2022/08/11 13:31:49;;;;;;;1.50;1.45;;;33.10;40.20;;;;;;5052502;28;20324;-91
2022/08/11 13:34:19;;;;;;;1.75;1.65;;;32.80;43.50;;;;;;5052452;28;20209;-91
2022/08/11 13:36:50;;;;;;;1.25;1.25;;;32.60;42.10;;;;;;5052697;28;20236;-91
2022/08/11 13:39:21;;;;;;;1.70;1.60;;;32.30;43.30;;;;;;5052252;28;20233;-90
2022/08/11 13:41:53;;;;;;;2.13;2.00;;;32.10;44.20;;;;;;5052373;28;20236;-91
2022/08/11 13:44:25;;;;;;;1.45;1.40;;;32.00;45.10;;;;;;5052042;28;20205;-91
2022/08/11 13:46:59;;;;;;;2.10;2.00;;;31.70;45.20;;;;;;5052216;28;20205;-91
2022/08/11 13:49:30;;;;;;;1.90;1.77;;;31.40;43.20;;;;;;5051750;28;20205;-90
2022/08/11 13:51:59;;;;;;;1.63;1.52;;;31.10;45.40;;;;;;5052472;28;20259;-91
2022/08/11 13:54:31;;;;;;;2.83;2.45;;;31.00;45.10;;;;;;5052007;28;20232;-91
2022/08/11 13:57:03;;;;;;;2.80;2.22;;;30.80;44.50;;;;;;5052086;28;20204;-90
2022/08/11 13:59:36;;;;;;;1.52;1.42;;;30.40;45.50;;;;;;5051847;28;20248;-90
2022/08/11 14:02:28;;;;;;;2.33;2.10;;;30.10;44.90;;;;;;5052400;28;20233;-91
2022/08/11 14:05:03;;;;;;;1.77;1.63;;;29.90;46.50;;;;;;5052096;28;20279;-91
2022/08/11 14:07:37;;;;;;;3.08;2.75;;;29.70;45.80;;;;;;5051928;28;20219;-90
2022/08/11 14:10:09;;;;;;;1.67;1.58;;;29.60;46.70;;;;;;5051844;28;20205;-90
2022/08/11 14:15:31;;;;;;;1.88;1.77;;;29.40;46.80;;;;;;5051848;28;20270;-91
2022/08/11 14:18:05;;;;;;;3.10;2.90;;;29.40;48.00;;;;;;5052158;28;20220;-90
2022/08/11 14:23:19;;;;;;;2.60;2.20;;;29.20;48.30;;;;;;5051765;28;20296;-90
2022/08/11 14:28:35;;;;;;;2.28;1.95;;;29.10;48.90;;;;;;5051583;28;20209;-91
2022/08/11 14:31:12;;;;;;;1.70;1.60;;;29.30;49.30;;;;;;5053694;28;20259;-90
2022/08/11 14:33:42;;;;;;;3.38;2.70;;;29.40;50.30;;;;;;5055687;28;20233;-91
2022/08/11 14:36:30;;;;;;;2.47;1.80;;;29.40;48.30;;;;;;5057041;28;20229;-90
2022/08/11 14:39:01;;;;;;;1.70;1.60;;;29.40;48.70;;;;;;5056924;28;20229;-91
2022/08/11 14:47:24;;;;;;;1.80;1.70;;;29.50;49.20;;;;;;5065480;28;20271;-90
2022/08/11 14:49:57;;;;;;;2.05;1.90;;;29.30;48.50;;;;;;5055552;28;20285;-90
2022/08/11 14:52:45;;;;;;;1.98;1.88;;;29.20;49.20;;;;;;5055868;28;20209;-90
2022/08/11 14:58:02;;;;;;;4.28;2.08;;;29.20;50.10;;;;;;5055103;28;20292;-91
2022/08/11 15:00:32;;;;;;;2.67;1.70;;;29.20;48.60;;;;;;5056643;28;20224;-90
2022/08/11 15:03:10;;;;;;;1.83;1.70;;;29.20;50.20;;;;;;5055221;28;20201;-90
2022/08/11 15:05:47;;;;;;;2.25;2.05;;;29.30;51.00;;;;;;5054901;28;20206;-90
2022/08/11 15:14:06;;;;;;;1.75;1.65;;;28.90;48.80;;;;;;5054674;28;20269;-90
2022/08/11 15:19:26;;;;;;;1.70;1.60;;;28.40;50.60;;;;;;5054603;28;20248;-90
2022/08/11 15:24:41;;;;;;;2.55;1.75;;;28.20;51.50;;;;;;5054699;28;20212;-91
2022/08/11 15:38:55;;;;;;;2.10;1.90;;;27.70;52.60;;;;;;4992717;28;20242;-90
2022/08/11 15:47:36;;;;;;;4.20;2.35;;;27.60;53.20;;;;;;5054259;28;20205;-90
2022/08/11 15:50:06;;;;;;;4.00;2.55;;;27.50;53.50;;;;;;5053678;28;20208;-90
2022/08/11 15:52:47;;;;;;;2.53;2.33;;;27.40;53.60;;;;;;5054264;28;20231;-89
2022/08/11 15:55:18;;;;;;;2.45;1.88;;;27.40;54.00;;;;;;5054088;28;20209;-89
2022/08/11 16:06:39;;;;;;;2.65;2.20;;;27.30;53.70;;;;;;5053916;28;20205;-90
2022/08/11 16:09:22;;;;;;;2.65;2.15;;;27.20;54.70;;;;;;5053856;28;20214;-89
2022/08/11 16:11:53;;;;;;;2.50;2.30;;;27.10;53.80;;;;;;5053481;28;20312;-90
2022/08/11 16:17:12;;;;;;;2.85;2.20;;;26.90;53.40;;;;;;5053932;28;20209;-89
2022/08/11 16:19:42;;;;;;;1.95;1.85;;;26.90;54.30;;;;;;5054235;28;20268;-88
2022/08/11 16:22:12;;;;;;;5.70;2.35;;;26.80;54.40;;;;;;5053621;28;20233;-90
2022/08/11 16:24:44;;;;;;;2.20;2.00;;;26.70;53.70;;;;;;5053879;28;20216;-90
2022/08/11 16:27:37;;;;;;;2.67;1.90;;;26.70;54.20;;;;;;5053701;28;20198;-90
2022/08/11 16:30:08;;;;;;;3.00;2.20;;;26.70;53.90;;;;;;5053619;28;20205;-89
2022/08/11 16:32:39;;;;;;;2.17;1.98;;;26.60;54.40;;;;;;5053877;28;20208;-89
2022/08/11 16:40:44;;;;;;;3.88;2.10;;;26.50;55.00;;;;;;5053101;28;20304;-89
2022/08/11 16:49:00;;;;;;;15.63;2.22;;;26.30;55.10;;;;;;5051957;28;20208;-89
2022/08/11 16:51:28;;;;;;;3.05;2.85;;;26.20;55.00;;;;;;5053377;28;20319;-89
2022/08/11 16:53:57;;;;;;;4.40;4.00;;;26.10;55.40;;;;;;5053189;28;20212;-90
2022/08/11 16:56:37;;;;;;;3.42;2.58;;;26.10;55.20;;;;;;5054199;28;20308;-89
2022/08/11 16:59:15;;;;;;;2.28;2.17;;;26.00;55.70;;;;;;5053024;28;20205;-89
2022/08/11 17:01:53;;;;;;;2.85;2.30;;;25.90;55.60;;;;;;5053193;28;20260;-89
2022/08/11 17:13:28;;;;;;;2.00;1.90;;;25.80;56.10;;;;;;5053557;28;20225;-89
2022/08/11 17:16:07;;;;;;;2.58;1.98;;;25.70;56.20;;;;;;5053077;28;20213;-89
2022/08/11 17:18:43;;;;;;;2.75;2.17;;;25.60;56.40;;;;;;5052905;28;20288;-89
2022/08/11 17:21:16;;;;;;;4.18;2.10;;;25.70;55.50;;;;;;5052745;28;20284;-88
2022/08/11 17:23:51;;;;;;;2.22;2.03;;;25.60;56.30;;;;;;5052679;28;20202;-89
2022/08/11 17:26:22;;;;;;;2.22;2.13;;;25.60;56.30;;;;;;5052626;28;20200;-89
2022/08/11 17:28:56;;;;;;;5.40;2.17;;;25.50;55.30;;;;;;5052855;28;20209;-89
2022/08/11 17:37:01;;;;;;;3.75;2.92;;;25.20;54.80;;;;;;5052491;28;20253;-89
2022/08/11 17:39:31;;;;;;;4.80;2.38;;;25.20;54.80;;;;;;5052576;28;20293;-89
2022/08/11 17:50:23;;;;;;;1.80;1.70;;;24.90;54.60;;;;;;5052141;28;20279;-88
2022/08/11 18:01:15;;;;;;;2.33;2.13;;;24.70;53.70;;;;;;5051635;28;20306;-88
2022/08/11 18:03:44;;;;;;;3.67;2.42;;;24.60;55.10;;;;;;5052193;28;20209;-88
2022/08/11 18:06:29;;;;;;;1.73;1.63;;;24.60;54.50;;;;;;5056213;28;20302;-89
